Ucar, Spain

8:37 AM CEST on August 19, 2018 (GMT +0200)
EA2KR | | Change Station

Elev 1526 ft 42.76 °N, 1.63 °W | Updated 3 seconds ago

Clear
Clear
65.3 °F
Feels Like 65.3 °F
N
0
Wind Variable Wind from North
Gusts 0.0 mph

Today
High -- | Low -- °F
--% Chance of Precip.
Yesterday
High -- | Low -- °F
Precip. -- in
Pressure 30.24 in
Visibility -9999.0 miles
Clouds
Dew Point 56 °F
Humidity 71%
Rainfall 0.00 in
Snow Depth Not available.
7:17 AM 9:02 PM
First Quarter, 59% visible
METAR LEPP 190630Z 16001KT CAVOK 15/12 Q1024
Pressure 30.24 in
Visibility -9999.0 miles
Clouds
Dew Point 56 °F
Humidity 71%
Rainfall 0.00 in
Snow Depth Not available.
7:17 AM 9:02 PM
First Quarter, 59% visible
METAR LEPP 190630Z 16001KT CAVOK 15/12 Q1024

Get Severe Weather Alerts

Thanks for signing up!

Be on the lookout for a verification email in your inbox.

You'll start receiving the daily forecast at 6 AM.

×

10-Day Weather Forecast

×

Almanac

Astronomy

Aug. 19, 2018 Rise Set
Actual Time
Civil Twilight
Nautical Twilight
Astronomical Twilight
Moon
Length of Visible Light
Length of Day
Tomorrow will be .
, % of the Moon is Illuminated

Today's Extremes

Country Highs Country Lows

Community

WunderPhotos

Category 6

Welcome to Category 6. This is the collective home for Weather Underground's featured writeups by Dr. Jeff Masters (right), Bob Henson (left), Chris Burt, and other regular contributors.

Nearby

Air Quality

  Air Quality AQ Index Pollutant
Not available.

Snow Depth

Station Depth Elevation

Earthquake Activity

City Distance Mag. Time & Date
Minimum magnitude displayed is 2.5.

Coastal Water Temperatures

Place Temperature

Stations

Nearby Weather Stations

Station Location Temp. Windchill Dew Point Humidity Wind Precip. Elev Updated Type